Terminal Aerodrome Forecast
Issued by NWS San Angelo, TX

Home | Current Version | Previous Version | Text Only | Print | Product List | Glossary On
Versions: 1 2 3 4 5 6 7 8 9 10 11 12 13 14 15 16 17 18 19 20
401
FTUS44 KSJT 022322
TAFSJT
TAF
KSJT 022322Z 0300/0324 08008KT 6SM -DZ BR OVC015
     FM030900 05006KT 4SM -RA BR OVC009
     FM031200 05009KT 2SM -RA BR OVC007=

USA.gov is the U.S. government's official web portal to all federal, state and local government web resources and services.